sensor_id;sensor_type;location;lat;lon;timestamp;pressure;altitude;pressure_sealevel;temperature;humidity
76592;BME280;65481;47.600;19.682;2023-01-01T00:02:11;101318.31;;;2.27;100.00
76592;BME280;65481;47.600;19.682;2023-01-01T00:07:11;101307.50;;;2.22;100.00
76592;BME280;65481;47.600;19.682;2023-01-01T00:12:12;101324.81;;;2.14;100.00
76592;BME280;65481;47.600;19.682;2023-01-01T00:17:12;101329.72;;;1.99;100.00
76592;BME280;65481;47.600;19.682;2023-01-01T00:22:13;101326.09;;;2.09;100.00
76592;BME280;65481;47.600;19.682;2023-01-01T00:27:13;101323.16;;;1.94;100.00
76592;BME280;65481;47.600;19.682;2023-01-01T00:32:14;101344.72;;;1.77;100.00
76592;BME280;65481;47.600;19.682;2023-01-01T00:37:15;101334.03;;;1.80;100.00
76592;BME280;65481;47.600;19.682;2023-01-01T00:42:17;101336.59;;;1.90;100.00
76592;BME280;65481;47.600;19.682;2023-01-01T00:47:18;101348.22;;;1.95;100.00
76592;BME280;65481;47.600;19.682;2023-01-01T00:52:18;101337.38;;;2.00;100.00
76592;BME280;65481;47.600;19.682;2023-01-01T00:57:19;101322.47;;;1.92;100.00
76592;BME280;65481;47.600;19.682;2023-01-01T01:02:20;101327.72;;;1.83;100.00
76592;BME280;65481;47.600;19.682;2023-01-01T01:07:20;101329.06;;;1.87;100.00
76592;BME280;65481;47.600;19.682;2023-01-01T01:12:21;101340.25;;;1.97;100.00
76592;BME280;65481;47.600;19.682;2023-01-01T01:17:21;101342.72;;;1.99;100.00
76592;BME280;65481;47.600;19.682;2023-01-01T01:22:22;101331.19;;;2.01;100.00
76592;BME280;65481;47.600;19.682;2023-01-01T01:27:23;101320.06;;;2.09;100.00
76592;BME280;65481;47.600;19.682;2023-01-01T01:32:23;101318.94;;;2.11;100.00
76592;BME280;65481;47.600;19.682;2023-01-01T01:37:24;101311.28;;;2.10;100.00
76592;BME280;65481;47.600;19.682;2023-01-01T01:42:24;101301.56;;;2.12;100.00
76592;BME280;65481;47.600;19.682;2023-01-01T01:47:52;101303.25;;;2.03;100.00
76592;BME280;65481;47.600;19.682;2023-01-01T01:58:02;101316.25;;;2.03;100.00
76592;BME280;65481;47.600;19.682;2023-01-01T02:03:06;101329.72;;;1.99;100.00
76592;BME280;65481;47.600;19.682;2023-01-01T02:08:07;101316.16;;;1.95;100.00
76592;BME280;65481;47.600;19.682;2023-01-01T02:13:09;101325.50;;;1.88;100.00
76592;BME280;65481;47.600;19.682;2023-01-01T02:18:12;101321.94;;;1.89;100.00
76592;BME280;65481;47.600;19.682;2023-01-01T02:29:06;101325.06;;;1.92;100.00
76592;BME280;65481;47.600;19.682;2023-01-01T02:34:02;101320.66;;;1.93;100.00
76592;BME280;65481;47.600;19.682;2023-01-01T02:39:06;101320.03;;;1.91;100.00
76592;BME280;65481;47.600;19.682;2023-01-01T02:44:10;101325.78;;;1.85;100.00
76592;BME280;65481;47.600;19.682;2023-01-01T02:49:11;101324.03;;;1.75;100.00
76592;BME280;65481;47.600;19.682;2023-01-01T02:59:31;101341.91;;;1.60;100.00
76592;BME280;65481;47.600;19.682;2023-01-01T03:10:43;101350.38;;;1.62;100.00
76592;BME280;65481;47.600;19.682;2023-01-01T03:15:42;101339.69;;;1.56;100.00
76592;BME280;65481;47.600;19.682;2023-01-01T03:20:48;101333.94;;;1.62;100.00
76592;BME280;65481;47.600;19.682;2023-01-01T03:25:53;101329.63;;;1.80;100.00
76592;BME280;65481;47.600;19.682;2023-01-01T03:30:56;101331.91;;;1.93;100.00
76592;BME280;65481;47.600;19.682;2023-01-01T03:36:01;101324.78;;;1.95;100.00
76592;BME280;65481;47.600;19.682;2023-01-01T03:41:11;101328.19;;;1.96;100.00
76592;BME280;65481;47.600;19.682;2023-01-01T03:46:13;101333.41;;;1.96;100.00
76592;BME280;65481;47.600;19.682;2023-01-01T03:56:45;101319.16;;;2.00;100.00
76592;BME280;65481;47.600;19.682;2023-01-01T04:01:51;101317.75;;;2.06;100.00
76592;BME280;65481;47.600;19.682;2023-01-01T04:06:54;101335.84;;;2.07;100.00
76592;BME280;65481;47.600;19.682;2023-01-01T04:11:58;101338.44;;;2.07;100.00
76592;BME280;65481;47.600;19.682;2023-01-01T04:17:02;101337.88;;;2.04;100.00
76592;BME280;65481;47.600;19.682;2023-01-01T04:22:05;101333.81;;;2.01;100.00
76592;BME280;65481;47.600;19.682;2023-01-01T04:27:07;101344.50;;;1.98;100.00
76592;BME280;65481;47.600;19.682;2023-01-01T04:32:07;101343.00;;;1.95;100.00
76592;BME280;65481;47.600;19.682;2023-01-01T04:37:08;101345.75;;;1.94;100.00
76592;BME280;65481;47.600;19.682;2023-01-01T04:42:08;101345.78;;;1.84;100.00
76592;BME280;65481;47.600;19.682;2023-01-01T04:47:09;101346.31;;;1.88;100.00
76592;BME280;65481;47.600;19.682;2023-01-01T04:52:10;101344.09;;;1.93;100.00
76592;BME280;65481;47.600;19.682;2023-01-01T04:57:10;101347.38;;;1.95;100.00
76592;BME280;65481;47.600;19.682;2023-01-01T05:02:11;101347.81;;;1.90;100.00
76592;BME280;65481;47.600;19.682;2023-01-01T05:07:11;101347.66;;;1.92;100.00
76592;BME280;65481;47.600;19.682;2023-01-01T05:12:12;101350.66;;;1.97;100.00
76592;BME280;65481;47.600;19.682;2023-01-01T05:17:12;101352.19;;;2.00;100.00
76592;BME280;65481;47.600;19.682;2023-01-01T05:22:13;101358.44;;;2.07;100.00
76592;BME280;65481;47.600;19.682;2023-01-01T05:27:14;101351.81;;;2.12;100.00
76592;BME280;65481;47.600;19.682;2023-01-01T05:32:14;101346.50;;;2.14;100.00
76592;BME280;65481;47.600;19.682;2023-01-01T05:37:15;101349.78;;;2.16;100.00
76592;BME280;65481;47.600;19.682;2023-01-01T05:42:15;101338.75;;;2.22;100.00
76592;BME280;65481;47.600;19.682;2023-01-01T05:47:18;101341.59;;;2.29;100.00
76592;BME280;65481;47.600;19.682;2023-01-01T05:52:20;101358.75;;;2.32;100.00
76592;BME280;65481;47.600;19.682;2023-01-01T05:57:21;101359.53;;;2.32;100.00
76592;BME280;65481;47.600;19.682;2023-01-01T06:02:21;101359.53;;;2.32;100.00
76592;BME280;65481;47.600;19.682;2023-01-01T06:07:22;101355.97;;;2.33;100.00
76592;BME280;65481;47.600;19.682;2023-01-01T06:12:22;101350.47;;;2.36;100.00
76592;BME280;65481;47.600;19.682;2023-01-01T06:17:23;101370.66;;;2.34;100.00
76592;BME280;65481;47.600;19.682;2023-01-01T06:22:23;101368.56;;;2.38;100.00
76592;BME280;65481;47.600;19.682;2023-01-01T06:27:24;101379.97;;;2.37;100.00
76592;BME280;65481;47.600;19.682;2023-01-01T06:32:24;101386.28;;;2.34;100.00
76592;BME280;65481;47.600;19.682;2023-01-01T06:37:26;101397.81;;;2.32;100.00
76592;BME280;65481;47.600;19.682;2023-01-01T06:42:27;101409.59;;;2.36;100.00
76592;BME280;65481;47.600;19.682;2023-01-01T06:47:27;101421.22;;;2.41;100.00
76592;BME280;65481;47.600;19.682;2023-01-01T06:52:28;101441.78;;;2.45;100.00
76592;BME280;65481;47.600;19.682;2023-01-01T06:57:28;101446.97;;;2.45;100.00
76592;BME280;65481;47.600;19.682;2023-01-01T07:02:29;101450.91;;;2.49;100.00
76592;BME280;65481;47.600;19.682;2023-01-01T07:07:30;101443.38;;;2.55;100.00
76592;BME280;65481;47.600;19.682;2023-01-01T07:12:30;101442.03;;;2.69;100.00
76592;BME280;65481;47.600;19.682;2023-01-01T07:17:31;101442.81;;;2.80;100.00
76592;BME280;65481;47.600;19.682;2023-01-01T07:22:31;101454.56;;;2.84;100.00
76592;BME280;65481;47.600;19.682;2023-01-01T07:27:32;101445.72;;;2.95;100.00
76592;BME280;65481;47.600;19.682;2023-01-01T07:32:32;101445.91;;;3.11;100.00
76592;BME280;65481;47.600;19.682;2023-01-01T07:37:32;101447.63;;;3.21;100.00
76592;BME280;65481;47.600;19.682;2023-01-01T07:42:33;101452.03;;;3.38;100.00
76592;BME280;65481;47.600;19.682;2023-01-01T07:47:33;101449.63;;;3.45;100.00
76592;BME280;65481;47.600;19.682;2023-01-01T07:52:34;101452.31;;;3.53;100.00
76592;BME280;65481;47.600;19.682;2023-01-01T07:57:34;101451.25;;;3.64;100.00
76592;BME280;65481;47.600;19.682;2023-01-01T08:02:35;101450.41;;;3.82;100.00
76592;BME280;65481;47.600;19.682;2023-01-01T08:07:36;101457.19;;;3.92;100.00
76592;BME280;65481;47.600;19.682;2023-01-01T08:12:37;101452.38;;;4.14;100.00
76592;BME280;65481;47.600;19.682;2023-01-01T08:17:38;101452.94;;;4.26;100.00
76592;BME280;65481;47.600;19.682;2023-01-01T08:22:39;101467.91;;;4.50;100.00
76592;BME280;65481;47.600;19.682;2023-01-01T08:27:40;101465.56;;;4.74;100.00
76592;BME280;65481;47.600;19.682;2023-01-01T08:32:40;101491.28;;;4.95;100.00
76592;BME280;65481;47.600;19.682;2023-01-01T08:37:41;101490.34;;;5.21;100.00
76592;BME280;65481;47.600;19.682;2023-01-01T08:42:42;101484.97;;;5.30;100.00
76592;BME280;65481;47.600;19.682;2023-01-01T08:47:42;101495.31;;;5.32;100.00
76592;BME280;65481;47.600;19.682;2023-01-01T08:52:43;101502.50;;;5.46;100.00
76592;BME280;65481;47.600;19.682;2023-01-01T08:57:43;101505.16;;;5.88;100.00
76592;BME280;65481;47.600;19.682;2023-01-01T09:02:45;101504.59;;;6.34;100.00
76592;BME280;65481;47.600;19.682;2023-01-01T09:07:45;101490.91;;;6.95;100.00
76592;BME280;65481;47.600;19.682;2023-01-01T09:12:46;101501.63;;;7.63;100.00
76592;BME280;65481;47.600;19.682;2023-01-01T09:17:46;101493.41;;;8.34;100.00
76592;BME280;65481;47.600;19.682;2023-01-01T09:22:47;101466.91;;;9.03;100.00
76592;BME280;65481;47.600;19.682;2023-01-01T09:27:47;101478.31;;;9.32;100.00
76592;BME280;65481;47.600;19.682;2023-01-01T09:32:48;101479.59;;;9.86;100.00
76592;BME280;65481;47.600;19.682;2023-01-01T09:37:48;101473.41;;;10.07;100.00
76592;BME280;65481;47.600;19.682;2023-01-01T09:42:53;101471.22;;;10.11;100.00
76592;BME280;65481;47.600;19.682;2023-01-01T09:48:05;101466.66;;;10.26;100.00
76592;BME280;65481;47.600;19.682;2023-01-01T09:53:23;101471.69;;;10.21;100.00
76592;BME280;65481;47.600;19.682;2023-01-01T09:58:42;101476.06;;;9.79;100.00
76592;BME280;65481;47.600;19.682;2023-01-01T10:03:50;101487.28;;;9.59;100.00
76592;BME280;65481;47.600;19.682;2023-01-01T10:14:36;101484.47;;;9.89;100.00
76592;BME280;65481;47.600;19.682;2023-01-01T10:19:48;101478.22;;;10.25;100.00
76592;BME280;65481;47.600;19.682;2023-01-01T10:24:57;101473.00;;;10.04;100.00
76592;BME280;65481;47.600;19.682;2023-01-01T10:30:01;101464.09;;;10.05;100.00
76592;BME280;65481;47.600;19.682;2023-01-01T10:35:11;101463.03;;;9.99;100.00
76592;BME280;65481;47.600;19.682;2023-01-01T10:40:18;101464.94;;;10.40;100.00
76592;BME280;65481;47.600;19.682;2023-01-01T10:55:49;101458.84;;;11.15;100.00
76592;BME280;65481;47.600;19.682;2023-01-01T11:00:59;101443.81;;;11.63;100.00
76592;BME280;65481;47.600;19.682;2023-01-01T11:06:00;101434.13;;;12.36;100.00
76592;BME280;65481;47.600;19.682;2023-01-01T11:11:02;101422.59;;;12.94;99.96
76592;BME280;65481;47.600;19.682;2023-01-01T11:16:09;101421.22;;;13.17;94.77
76592;BME280;65481;47.600;19.682;2023-01-01T11:21:18;101412.78;;;13.01;93.23
76592;BME280;65481;47.600;19.682;2023-01-01T11:26:22;101393.94;;;12.84;92.94
76592;BME280;65481;47.600;19.682;2023-01-01T11:31:29;101375.03;;;12.81;93.47
76592;BME280;65481;47.600;19.682;2023-01-01T11:36:33;101369.84;;;12.93;92.42
76592;BME280;65481;47.600;19.682;2023-01-01T11:41:47;101377.25;;;13.09;92.63
76592;BME280;65481;47.600;19.682;2023-01-01T11:46:48;101385.63;;;13.06;92.31
76592;BME280;65481;47.600;19.682;2023-01-01T11:51:49;101379.75;;;13.04;92.48
76592;BME280;65481;47.600;19.682;2023-01-01T11:56:53;101381.78;;;13.02;92.53
76592;BME280;65481;47.600;19.682;2023-01-01T12:01:58;101368.81;;;12.62;94.83
76592;BME280;65481;47.600;19.682;2023-01-01T12:07:11;101372.19;;;12.76;95.66
76592;BME280;65481;47.600;19.682;2023-01-01T12:23:08;101348.59;;;11.83;100.00
76592;BME280;65481;47.600;19.682;2023-01-01T12:28:34;101341.75;;;11.55;100.00
76592;BME280;65481;47.600;19.682;2023-01-01T12:33:51;101338.03;;;11.70;100.00
76592;BME280;65481;47.600;19.682;2023-01-01T12:50:06;101327.53;;;11.49;100.00
76592;BME280;65481;47.600;19.682;2023-01-01T12:55:24;101334.66;;;11.56;100.00
76592;BME280;65481;47.600;19.682;2023-01-01T13:00:33;101328.72;;;11.67;100.00
76592;BME280;65481;47.600;19.682;2023-01-01T13:05:43;101338.22;;;11.81;100.00
76592;BME280;65481;47.600;19.682;2023-01-01T13:10:47;101334.13;;;11.86;100.00
76592;BME280;65481;47.600;19.682;2023-01-01T13:15:52;101342.28;;;11.91;100.00
76592;BME280;65481;47.600;19.682;2023-01-01T13:36:37;101348.66;;;11.56;100.00
76592;BME280;65481;47.600;19.682;2023-01-01T13:46:44;101347.88;;;11.42;100.00
76592;BME280;65481;47.600;19.682;2023-01-01T14:02:27;101378.38;;;10.98;100.00
76592;BME280;65481;47.600;19.682;2023-01-01T14:12:36;101392.47;;;10.43;100.00
76592;BME280;65481;47.600;19.682;2023-01-01T14:17:39;101386.50;;;10.27;100.00
76592;BME280;65481;47.600;19.682;2023-01-01T14:22:43;101400.06;;;10.18;100.00
76592;BME280;65481;47.600;19.682;2023-01-01T14:27:44;101405.88;;;10.06;100.00
76592;BME280;65481;47.600;19.682;2023-01-01T14:32:47;101400.34;;;9.94;100.00
76592;BME280;65481;47.600;19.682;2023-01-01T14:37:54;101400.25;;;9.81;100.00
76592;BME280;65481;47.600;19.682;2023-01-01T14:43:06;101400.81;;;9.69;100.00
76592;BME280;65481;47.600;19.682;2023-01-01T14:48:17;101395.66;;;9.61;100.00
76592;BME280;65481;47.600;19.682;2023-01-01T14:53:22;101399.63;;;9.50;100.00
76592;BME280;65481;47.600;19.682;2023-01-01T14:58:27;101407.72;;;9.42;100.00
76592;BME280;65481;47.600;19.682;2023-01-01T15:03:28;101412.25;;;9.27;100.00
76592;BME280;65481;47.600;19.682;2023-01-01T15:08:29;101413.19;;;9.19;100.00
76592;BME280;65481;47.600;19.682;2023-01-01T15:13:29;101419.16;;;9.06;100.00
76592;BME280;65481;47.600;19.682;2023-01-01T15:23:42;101424.19;;;8.86;100.00
76592;BME280;65481;47.600;19.682;2023-01-01T15:28:46;101417.63;;;8.75;100.00
76592;BME280;65481;47.600;19.682;2023-01-01T15:33:47;101417.38;;;8.55;100.00
76592;BME280;65481;47.600;19.682;2023-01-01T15:38:48;101416.00;;;8.44;100.00
76592;BME280;65481;47.600;19.682;2023-01-01T15:43:49;101411.03;;;8.34;100.00
76592;BME280;65481;47.600;19.682;2023-01-01T15:48:51;101418.22;;;8.25;100.00
76592;BME280;65481;47.600;19.682;2023-01-01T15:53:57;101417.97;;;8.20;100.00
76592;BME280;65481;47.600;19.682;2023-01-01T15:59:25;101410.31;;;8.25;100.00
76592;BME280;65481;47.600;19.682;2023-01-01T16:04:27;101427.09;;;8.24;100.00
76592;BME280;65481;47.600;19.682;2023-01-01T16:09:27;101427.94;;;8.25;100.00
76592;BME280;65481;47.600;19.682;2023-01-01T16:14:28;101433.47;;;8.30;100.00
76592;BME280;65481;47.600;19.682;2023-01-01T16:19:29;101459.47;;;8.40;100.00
76592;BME280;65481;47.600;19.682;2023-01-01T16:24:33;101456.09;;;8.46;100.00
76592;BME280;65481;47.600;19.682;2023-01-01T16:29:34;101463.00;;;8.47;100.00
76592;BME280;65481;47.600;19.682;2023-01-01T16:34:35;101453.16;;;8.49;100.00
76592;BME280;65481;47.600;19.682;2023-01-01T16:39:36;101468.72;;;8.51;100.00
76592;BME280;65481;47.600;19.682;2023-01-01T16:44:39;101473.00;;;8.52;100.00
76592;BME280;65481;47.600;19.682;2023-01-01T16:49:40;101471.09;;;8.45;100.00
76592;BME280;65481;47.600;19.682;2023-01-01T16:54:41;101484.25;;;8.45;100.00
76592;BME280;65481;47.600;19.682;2023-01-01T16:59:41;101492.50;;;8.42;100.00
76592;BME280;65481;47.600;19.682;2023-01-01T17:04:42;101502.28;;;8.33;100.00
76592;BME280;65481;47.600;19.682;2023-01-01T17:09:42;101495.31;;;8.26;100.00
76592;BME280;65481;47.600;19.682;2023-01-01T17:14:43;101497.44;;;8.22;100.00
76592;BME280;65481;47.600;19.682;2023-01-01T17:19:43;101484.84;;;8.17;100.00
76592;BME280;65481;47.600;19.682;2023-01-01T17:24:44;101480.69;;;8.08;100.00
76592;BME280;65481;47.600;19.682;2023-01-01T17:29:45;101475.50;;;8.00;100.00
76592;BME280;65481;47.600;19.682;2023-01-01T17:34:45;101471.97;;;7.93;100.00
76592;BME280;65481;47.600;19.682;2023-01-01T17:39:46;101477.84;;;7.95;100.00
76592;BME280;65481;47.600;19.682;2023-01-01T17:44:46;101466.25;;;7.89;100.00
76592;BME280;65481;47.600;19.682;2023-01-01T17:49:47;101465.16;;;7.83;100.00
76592;BME280;65481;47.600;19.682;2023-01-01T17:54:48;101475.22;;;7.80;100.00
76592;BME280;65481;47.600;19.682;2023-01-01T17:59:48;101465.84;;;7.77;100.00
76592;BME280;65481;47.600;19.682;2023-01-01T18:04:49;101489.34;;;7.79;100.00
76592;BME280;65481;47.600;19.682;2023-01-01T18:09:49;101483.56;;;7.83;100.00
76592;BME280;65481;47.600;19.682;2023-01-01T18:14:50;101484.53;;;7.82;100.00
76592;BME280;65481;47.600;19.682;2023-01-01T18:19:50;101488.81;;;7.83;100.00
76592;BME280;65481;47.600;19.682;2023-01-01T18:24:51;101485.81;;;7.86;100.00
76592;BME280;65481;47.600;19.682;2023-01-01T18:29:52;101484.00;;;7.87;100.00
76592;BME280;65481;47.600;19.682;2023-01-01T18:34:52;101482.38;;;7.86;100.00
76592;BME280;65481;47.600;19.682;2023-01-01T18:45:15;101486.75;;;7.94;100.00
76592;BME280;65481;47.600;19.682;2023-01-01T18:50:22;101482.09;;;7.96;100.00
76592;BME280;65481;47.600;19.682;2023-01-01T18:55:24;101485.84;;;8.01;100.00
76592;BME280;65481;47.600;19.682;2023-01-01T19:00:28;101493.75;;;8.01;100.00
76592;BME280;65481;47.600;19.682;2023-01-01T19:05:34;101482.31;;;8.09;100.00
76592;BME280;65481;47.600;19.682;2023-01-01T19:11:19;101480.94;;;8.13;100.00
76592;BME280;65481;47.600;19.682;2023-01-01T19:16:25;101476.97;;;8.17;100.00
76592;BME280;65481;47.600;19.682;2023-01-01T19:21:28;101483.88;;;8.18;100.00
76592;BME280;65481;47.600;19.682;2023-01-01T19:26:37;101476.16;;;8.17;100.00
76592;BME280;65481;47.600;19.682;2023-01-01T19:31:39;101467.44;;;8.16;100.00
76592;BME280;65481;47.600;19.682;2023-01-01T19:36:40;101470.28;;;8.15;100.00
76592;BME280;65481;47.600;19.682;2023-01-01T19:41:41;101471.72;;;8.17;100.00
76592;BME280;65481;47.600;19.682;2023-01-01T19:46:41;101478.06;;;8.23;100.00
76592;BME280;65481;47.600;19.682;2023-01-01T19:51:42;101470.28;;;8.30;100.00
76592;BME280;65481;47.600;19.682;2023-01-01T19:56:43;101464.81;;;8.31;100.00
76592;BME280;65481;47.600;19.682;2023-01-01T20:01:43;101459.13;;;8.28;100.00
76592;BME280;65481;47.600;19.682;2023-01-01T20:06:44;101471.28;;;8.29;100.00
76592;BME280;65481;47.600;19.682;2023-01-01T20:11:45;101474.78;;;8.36;100.00
76592;BME280;65481;47.600;19.682;2023-01-01T20:16:46;101468.19;;;8.40;100.00
76592;BME280;65481;47.600;19.682;2023-01-01T20:21:47;101463.56;;;8.42;100.00
76592;BME280;65481;47.600;19.682;2023-01-01T20:27:07;101460.56;;;8.45;100.00
76592;BME280;65481;47.600;19.682;2023-01-01T20:32:09;101456.56;;;8.49;100.00
76592;BME280;65481;47.600;19.682;2023-01-01T20:37:15;101455.56;;;8.51;100.00
76592;BME280;65481;47.600;19.682;2023-01-01T20:42:35;101455.56;;;8.51;100.00
76592;BME280;65481;47.600;19.682;2023-01-01T20:47:36;101456.56;;;8.49;100.00
76592;BME280;65481;47.600;19.682;2023-01-01T20:52:37;101470.75;;;8.48;100.00
76592;BME280;65481;47.600;19.682;2023-01-01T20:57:38;101460.03;;;8.50;100.00
76592;BME280;65481;47.600;19.682;2023-01-01T21:02:39;101467.56;;;8.53;100.00
76592;BME280;65481;47.600;19.682;2023-01-01T21:07:40;101457.94;;;8.45;100.00
76592;BME280;65481;47.600;19.682;2023-01-01T21:12:41;101462.56;;;8.43;100.00
76592;BME280;65481;47.600;19.682;2023-01-01T21:17:42;101464.56;;;8.41;100.00
76592;BME280;65481;47.600;19.682;2023-01-01T21:22:44;101463.63;;;8.34;100.00
76592;BME280;65481;47.600;19.682;2023-01-01T21:27:45;101461.56;;;8.29;100.00
76592;BME280;65481;47.600;19.682;2023-01-01T21:32:47;101458.13;;;8.29;100.00
76592;BME280;65481;47.600;19.682;2023-01-01T21:37:51;101463.47;;;8.36;100.00
76592;BME280;65481;47.600;19.682;2023-01-01T21:42:53;101463.47;;;8.36;100.00
76592;BME280;65481;47.600;19.682;2023-01-01T21:47:55;101456.75;;;8.33;100.00
76592;BME280;65481;47.600;19.682;2023-01-01T21:53:00;101458.28;;;8.27;100.00
76592;BME280;65481;47.600;19.682;2023-01-01T21:58:01;101465.38;;;8.27;100.00
76592;BME280;65481;47.600;19.682;2023-01-01T22:03:22;101466.19;;;8.27;100.00
76592;BME280;65481;47.600;19.682;2023-01-01T22:08:24;101451.25;;;8.28;100.00
76592;BME280;65481;47.600;19.682;2023-01-01T22:13:25;101446.69;;;8.22;100.00
76592;BME280;65481;47.600;19.682;2023-01-01T22:18:28;101446.41;;;8.16;100.00
76592;BME280;65481;47.600;19.682;2023-01-01T22:23:37;101443.34;;;8.13;100.00
76592;BME280;65481;47.600;19.682;2023-01-01T22:28:42;101439.91;;;8.12;100.00
76592;BME280;65481;47.600;19.682;2023-01-01T22:33:46;101436.25;;;8.13;100.00
76592;BME280;65481;47.600;19.682;2023-01-01T22:38:46;101417.41;;;8.10;100.00
76592;BME280;65481;47.600;19.682;2023-01-01T22:43:48;101422.38;;;8.04;100.00
76592;BME280;65481;47.600;19.682;2023-01-01T22:48:49;101421.78;;;8.02;100.00
76592;BME280;65481;47.600;19.682;2023-01-01T22:53:49;101418.75;;;8.06;100.00
76592;BME280;65481;47.600;19.682;2023-01-01T22:58:50;101417.31;;;8.03;100.00
76592;BME280;65481;47.600;19.682;2023-01-01T23:03:51;101406.63;;;8.04;100.00
76592;BME280;65481;47.600;19.682;2023-01-01T23:08:52;101409.16;;;7.98;100.00
76592;BME280;65481;47.600;19.682;2023-01-01T23:13:52;101407.00;;;8.01;100.00
76592;BME280;65481;47.600;19.682;2023-01-01T23:19:12;101403.66;;;7.93;100.00
76592;BME280;65481;47.600;19.682;2023-01-01T23:24:14;101408.28;;;7.91;100.00
76592;BME280;65481;47.600;19.682;2023-01-01T23:29:16;101410.53;;;7.94;100.00
76592;BME280;65481;47.600;19.682;2023-01-01T23:34:18;101388.41;;;7.88;100.00
76592;BME280;65481;47.600;19.682;2023-01-01T23:39:18;101390.94;;;7.81;100.00
76592;BME280;65481;47.600;19.682;2023-01-01T23:44:19;101381.78;;;7.77;100.00
76592;BME280;65481;47.600;19.682;2023-01-01T23:49:20;101382.16;;;7.74;100.00
76592;BME280;65481;47.600;19.682;2023-01-01T23:54:21;101376.00;;;7.67;100.00
76592;BME280;65481;47.600;19.682;2023-01-01T23:59:21;101370.94;;;7.65;100.00
